KLAX/LAX METAR and TAF weather

Enter ICAO airport designator
Station Type Date Time Source
KLAX METAR 2020/08/15 10:53 UTC NOAA

KLAX 151053Z 27003KT 10SM R25L/P6000FT CLR 21/17 A2979


Station Type Date Time Source
KLAX Decoded METAR 2020/08/15 10:53 UTC NOAA

LOS ANGELES INTERNTL AIRPORT, CA, United States (KLAX) 33-56N 118-23W 46M
Aug 15, 2020 - 06:53 AM EDT / 2020.08.15 1053 UTC
Wind: from the W (270 degrees) at 3 MPH (3 KT):0
Visibility: 10 mile(s):0
Sky conditions: clear
Temperature: 69 F (21 C)
Dew Point: 62 F (17 C)
Relative Humidity: 77%
Pressure (altimeter): 29.79 in. Hg (1008 hPa)
ob: KLAX 151053Z 27003KT 10SM R25L/P6000FT CLR 21/17 A2979
cycle: 11

Station Type Date Time Source
KLAX TAF 2020/08/15 09:24 UTC NOAA

TAF
AMD KLAX 150921Z 1509/1612 23006KT P6SM SKC
FM151300 VRB03KT P6SM SCT100
FM151800 26010KT P6SM SCT100
FM160300 VRB03KT P6SM BKN100
FM161000 16006KT P6SM BKN007

Example: see airport list